Time;durP1;ratioP1;P1;durP2;ratioP2;P2;SDS_P1;SDS_P2;PMS_P1;PMS_P2;Temp;Humidity;BMP_temperature;BMP_pressure;BME280_temperature;BME280_humidity;BME280_pressure;Samples;Min_cycle;Max_cycle;Signal;HPM_P1;HPM_P2
2022/10/19 00:01:35;;;;;;;;;;;16.70;68.10;;;;;;5071755;28;19924;-65
2022/10/19 00:04:01;;;;;;;;;;;16.70;68.10;;;;;;5071297;28;19920;-65
2022/10/19 00:06:28;;;;;;;;;;;16.70;68.10;;;;;;5071527;28;19927;-65
2022/10/19 00:08:55;;;;;;;;;;;16.70;68.10;;;;;;5071616;28;20372;-66
2022/10/19 00:11:22;;;;;;;;;;;16.70;68.10;;;;;;5072990;28;20003;-65
2022/10/19 00:13:48;;;;;;;;;;;16.60;68.00;;;;;;5071332;28;19966;-65
2022/10/19 00:16:14;;;;;;;;;;;16.70;68.10;;;;;;5071594;28;20018;-65
2022/10/19 00:18:42;;;;;;;;;;;16.70;68.00;;;;;;5072778;28;19940;-65
2022/10/19 00:21:08;;;;;;;;;;;16.60;67.90;;;;;;5071769;28;19993;-66
2022/10/19 00:23:34;;;;;;;;;;;16.60;67.90;;;;;;5072170;28;19940;-65
2022/10/19 00:25:59;;;;;;;;;;;16.60;67.90;;;;;;5072721;28;19936;-67
2022/10/19 00:28:25;;;;;;;;;;;16.60;67.90;;;;;;5072692;28;19929;-65
2022/10/19 00:30:51;;;;;;;;;;;16.60;67.90;;;;;;5071332;28;19921;-65
2022/10/19 00:33:20;;;;;;;;;;;16.60;67.90;;;;;;5070892;28;20027;-65
2022/10/19 00:35:47;;;;;;;;;;;16.60;67.90;;;;;;5071122;28;20151;-66
2022/10/19 00:38:13;;;;;;;;;;;16.60;67.80;;;;;;5072517;28;20015;-66
2022/10/19 00:40:39;;;;;;;;;;;16.50;67.80;;;;;;5071328;28;20007;-65
2022/10/19 00:43:08;;;;;;;;;;;16.60;67.90;;;;;;5072449;28;19926;-65
2022/10/19 00:45:34;;;;;;;;;;;16.60;67.90;;;;;;5072522;28;19920;-66
2022/10/19 00:47:59;;;;;;;;;;;16.60;67.80;;;;;;5070982;28;19931;-65
2022/10/19 00:50:25;;;;;;;;;;;16.60;67.90;;;;;;5071138;28;19926;-65
2022/10/19 00:52:50;;;;;;;;;;;16.60;67.80;;;;;;5071107;28;19920;-65
2022/10/19 00:55:16;;;;;;;;;;;16.60;67.80;;;;;;5071383;28;20036;-65
2022/10/19 00:57:41;;;;;;;;;;;16.60;67.80;;;;;;5071012;28;19943;-65
2022/10/19 01:00:07;;;;;;;;;;;16.60;67.80;;;;;;5071068;28;19928;-65
2022/10/19 01:02:33;;;;;;;;;;;16.50;67.70;;;;;;5070952;28;20000;-65
2022/10/19 01:04:59;;;;;;;;;;;16.50;67.80;;;;;;5071318;28;19962;-65
2022/10/19 01:07:25;;;;;;;;;;;16.50;67.70;;;;;;5070763;28;19964;-65
2022/10/19 01:09:51;;;;;;;;;;;16.50;67.80;;;;;;5071294;28;19964;-66
2022/10/19 01:15:17;;;;;;;;;;;16.50;67.80;;;;;;5122649;27;19913;-65
2022/10/19 01:17:55;;;;;;;;;;;16.50;67.80;;;;;;5088589;28;20426;-65
2022/10/19 01:20:29;;;;;;;;;;;16.50;67.80;;;;;;5088579;28;20338;-65
2022/10/19 01:23:14;;;;;;;;;;;16.50;67.80;;;;;;5088452;28;19920;-65
2022/10/19 01:26:00;;;;;;;;;;;16.50;67.80;;;;;;5088510;28;20280;-65
2022/10/19 01:31:14;;;;;;;;;;;16.40;67.70;;;;;;5122623;27;19913;-65
2022/10/19 01:33:53;;;;;;;;;;;16.40;67.70;;;;;;5088527;28;19927;-65
2022/10/19 01:36:25;;;;;;;;;;;16.50;67.80;;;;;;5089841;28;19920;-65
2022/10/19 01:38:54;;;;;;;;;;;16.40;67.70;;;;;;5088737;28;20010;-65
2022/10/19 01:41:24;;;;;;;;;;;16.40;67.70;;;;;;5088762;28;19945;-65
2022/10/19 01:44:00;;;;;;;;;;;16.50;67.70;;;;;;5088618;28;19920;-66
2022/10/19 01:49:23;;;;;;;;;;;16.40;67.70;;;;;;5166457;27;789866;-65
2022/10/19 01:51:51;;;;;;;;;;;16.40;67.70;;;;;;5214406;27;19918;-65
2022/10/19 01:54:18;;;;;;;;;;;16.30;67.60;;;;;;5195739;27;20289;-65
2022/10/19 01:56:45;;;;;;;;;;;16.40;67.70;;;;;;5195422;27;19919;-65
2022/10/19 01:59:11;;;;;;;;;;;16.40;67.70;;;;;;5195207;27;19918;-65
2022/10/19 02:01:39;;;;;;;;;;;16.40;67.70;;;;;;5214210;27;20285;-65
2022/10/19 02:04:05;;;;;;;;;;;16.30;67.60;;;;;;5195471;27;19997;-65
2022/10/19 02:06:31;;;;;;;;;;;16.30;67.60;;;;;;5195497;27;20017;-65
2022/10/19 02:08:56;;;;;;;;;;;16.30;67.60;;;;;;5194989;27;20393;-65
2022/10/19 02:11:22;;;;;;;;;;;16.30;67.60;;;;;;5214117;27;19942;-66
2022/10/19 02:13:51;;;;;;;;;;;16.30;67.50;;;;;;5195047;27;19922;-65
2022/10/19 02:16:20;;;;;;;;;;;16.40;67.60;;;;;;5213927;27;19961;-65
2022/10/19 02:18:48;;;;;;;;;;;16.30;67.50;;;;;;5195192;27;20292;-65
2022/10/19 02:21:14;;;;;;;;;;;16.30;67.50;;;;;;5194984;27;20024;-65
2022/10/19 02:23:39;;;;;;;;;;;16.30;67.60;;;;;;5195207;27;19936;-65
2022/10/19 02:26:05;;;;;;;;;;;16.30;67.60;;;;;;5194890;27;20373;-65
2022/10/19 02:28:31;;;;;;;;;;;16.40;67.60;;;;;;5194673;27;19958;-65
2022/10/19 02:30:57;;;;;;;;;;;16.30;67.50;;;;;;5194680;27;19922;-65
2022/10/19 02:33:23;;;;;;;;;;;16.30;67.50;;;;;;5194655;27;19924;-65
2022/10/19 02:35:48;;;;;;;;;;;16.30;68.30;;;;;;5194559;27;20005;-65
2022/10/19 02:38:15;;;;;;;;;;;16.30;67.60;;;;;;5194560;27;19925;-66
2022/10/19 02:40:42;;;;;;;;;;;16.30;67.50;;;;;;5194756;27;20017;-65
2022/10/19 02:43:10;;;;;;;;;;;16.20;67.50;;;;;;5185802;27;20002;-65
2022/10/19 02:45:39;;;;;;;;;;;16.30;67.60;;;;;;5173114;27;20382;-65
2022/10/19 02:48:07;;;;;;;;;;;16.30;67.60;;;;;;5173098;27;19929;-65
2022/10/19 02:50:32;;;;;;;;;;;16.40;67.60;;;;;;5173657;27;19926;-65
2022/10/19 02:52:58;;;;;;;;;;;16.30;67.60;;;;;;5173557;27;20285;-67
2022/10/19 02:55:24;;;;;;;;;;;16.20;67.50;;;;;;5173075;27;20370;-66
2022/10/19 02:57:50;;;;;;;;;;;16.20;67.50;;;;;;5173249;27;19970;-65
2022/10/19 03:00:15;;;;;;;;;;;16.20;67.50;;;;;;5159921;27;19919;-65
2022/10/19 03:02:41;;;;;;;;;;;16.20;67.50;;;;;;5178061;27;20051;-65
2022/10/19 03:05:07;;;;;;;;;;;16.20;67.50;;;;;;5178129;27;19970;-65
2022/10/19 03:07:32;;;;;;;;;;;16.30;67.50;;;;;;5177663;27;19922;-65
2022/10/19 03:09:58;;;;;;;;;;;16.20;67.50;;;;;;5177817;27;20495;-66
2022/10/19 03:12:23;;;;;;;;;;;16.20;67.50;;;;;;5158956;27;20032;-65
2022/10/19 03:14:49;;;;;;;;;;;16.20;67.50;;;;;;5158912;27;19919;-67
2022/10/19 03:17:14;;;;;;;;;;;16.20;67.50;;;;;;5159048;27;19922;-65
2022/10/19 03:19:40;;;;;;;;;;;16.20;67.50;;;;;;5158847;27;19918;-65
2022/10/19 03:22:05;;;;;;;;;;;16.20;67.50;;;;;;5158199;27;19919;-66
2022/10/19 03:24:32;;;;;;;;;;;16.20;67.50;;;;;;5177366;27;19919;-65
2022/10/19 03:26:57;;;;;;;;;;;16.20;67.50;;;;;;5158758;27;19930;-65
2022/10/19 03:29:23;;;;;;;;;;;16.20;67.60;;;;;;5158975;27;20366;-65
2022/10/19 03:31:48;;;;;;;;;;;16.20;67.50;;;;;;5158763;27;19962;-65
2022/10/19 03:34:14;;;;;;;;;;;16.20;67.50;;;;;;5158691;27;20263;-65
2022/10/19 03:36:40;;;;;;;;;;;16.20;67.50;;;;;;5158733;27;20071;-65
2022/10/19 03:39:07;;;;;;;;;;;16.10;67.50;;;;;;5158800;27;20073;-65
2022/10/19 03:41:34;;;;;;;;;;;16.10;67.40;;;;;;5158419;27;19918;-65
2022/10/19 03:44:00;;;;;;;;;;;16.20;67.50;;;;;;5177141;27;20293;-65
2022/10/19 03:46:25;;;;;;;;;;;16.20;67.50;;;;;;5177035;27;19925;-65
2022/10/19 03:48:52;;;;;;;;;;;16.10;67.40;;;;;;5176574;27;19927;-65
2022/10/19 03:51:19;;;;;;;;;;;16.10;67.40;;;;;;5158266;27;19971;-66
2022/10/19 03:53:44;;;;;;;;;;;16.10;67.40;;;;;;5176792;27;19930;-65
2022/10/19 03:56:12;;;;;;;;;;;16.10;67.50;;;;;;5158372;27;19918;-67
2022/10/19 03:58:38;;;;;;;;;;;16.20;67.50;;;;;;5158048;27;19919;-65
2022/10/19 04:01:07;;;;;;;;;;;16.20;67.50;;;;;;5176623;27;20331;-65
2022/10/19 04:03:33;;;;;;;;;;;16.10;67.40;;;;;;5158301;27;20355;-65
2022/10/19 04:06:00;;;;;;;;;;;16.10;67.40;;;;;;5176594;27;19930;-65
2022/10/19 04:08:26;;;;;;;;;;;16.10;67.40;;;;;;5157805;27;19930;-65
2022/10/19 04:10:51;;;;;;;;;;;16.10;67.40;;;;;;5175613;27;19923;-65
2022/10/19 04:13:17;;;;;;;;;;;16.10;67.40;;;;;;5176468;27;19923;-65
2022/10/19 04:15:42;;;;;;;;;;;16.10;67.40;;;;;;5157743;27;19925;-65
2022/10/19 04:18:08;;;;;;;;;;;16.10;67.40;;;;;;5176303;27;19926;-65
2022/10/19 04:20:34;;;;;;;;;;;16.10;67.40;;;;;;5157841;27;20301;-65
2022/10/19 04:22:59;;;;;;;;;;;16.10;67.40;;;;;;5157461;27;19970;-65
2022/10/19 04:25:25;;;;;;;;;;;16.10;67.40;;;;;;5157521;27;19982;-65
2022/10/19 04:27:50;;;;;;;;;;;16.10;67.40;;;;;;5176568;27;19930;-65
2022/10/19 04:30:16;;;;;;;;;;;16.10;67.40;;;;;;5157825;27;19918;-65
2022/10/19 04:32:41;;;;;;;;;;;16.10;67.50;;;;;;5157374;27;19918;-65
2022/10/19 04:35:07;;;;;;;;;;;16.10;67.40;;;;;;5176485;27;19984;-65
2022/10/19 04:37:32;;;;;;;;;;;16.10;67.50;;;;;;5157381;27;20404;-65
2022/10/19 04:39:58;;;;;;;;;;;16.20;67.50;;;;;;5157489;27;19971;-65
2022/10/19 04:42:23;;;;;;;;;;;16.10;67.40;;;;;;5156740;27;19926;-65
2022/10/19 04:44:49;;;;;;;;;;;16.10;67.40;;;;;;5156977;27;20334;-65
2022/10/19 04:47:14;;;;;;;;;;;16.10;67.40;;;;;;5157016;27;19923;-65
2022/10/19 04:49:40;;;;;;;;;;;16.00;67.40;;;;;;5157252;27;20021;-65
2022/10/19 04:52:05;;;;;;;;;;;16.10;67.40;;;;;;5157304;27;19970;-65
2022/10/19 04:54:31;;;;;;;;;;;16.10;67.40;;;;;;5156880;27;20461;-66
2022/10/19 04:56:56;;;;;;;;;;;16.10;67.40;;;;;;5156946;27;19980;-66
2022/10/19 04:59:22;;;;;;;;;;;16.10;67.40;;;;;;5156822;27;19919;-65
2022/10/19 05:01:47;;;;;;;;;;;16.10;67.40;;;;;;5156767;27;19923;-66
2022/10/19 05:04:13;;;;;;;;;;;16.10;67.40;;;;;;5175379;27;19918;-65
2022/10/19 05:06:38;;;;;;;;;;;16.10;67.40;;;;;;5175645;27;19925;-65
2022/10/19 05:09:04;;;;;;;;;;;16.00;67.30;;;;;;5175352;27;19930;-65
2022/10/19 05:11:29;;;;;;;;;;;16.00;67.30;;;;;;5175331;27;19919;-65
2022/10/19 05:13:56;;;;;;;;;;;16.00;67.30;;;;;;5156923;27;20357;-67
2022/10/19 05:16:22;;;;;;;;;;;16.00;67.30;;;;;;5175324;27;19923;-65
2022/10/19 05:18:49;;;;;;;;;;;16.00;67.30;;;;;;5156536;27;19923;-65
2022/10/19 05:21:16;;;;;;;;;;;16.00;67.30;;;;;;5156493;27;19925;-65
2022/10/19 05:23:42;;;;;;;;;;;16.00;67.30;;;;;;5156539;27;19962;-65
2022/10/19 05:26:09;;;;;;;;;;;16.00;67.30;;;;;;5175034;27;20018;-65
2022/10/19 05:28:35;;;;;;;;;;;16.00;67.30;;;;;;5156369;27;19923;-65
2022/10/19 05:31:08;;;;;;;;;;;16.00;67.30;;;;;;5155588;27;19919;-65
2022/10/19 05:33:34;;;;;;;;;;;16.00;67.30;;;;;;5156281;27;20021;-65
2022/10/19 05:36:08;;;;;;;;;;;16.00;67.30;;;;;;5174917;27;19919;-65
2022/10/19 05:38:34;;;;;;;;;;;16.00;67.30;;;;;;5156447;27;20362;-65
2022/10/19 05:40:59;;;;;;;;;;;16.00;67.30;;;;;;5156147;27;19925;-65
2022/10/19 05:43:25;;;;;;;;;;;16.00;67.20;;;;;;5156781;27;19923;-65
2022/10/19 05:45:50;;;;;;;;;;;16.00;67.30;;;;;;5156428;27;20346;-66
2022/10/19 05:48:16;;;;;;;;;;;16.00;67.30;;;;;;5155971;27;20341;-65
2022/10/19 05:50:51;;;;;;;;;;;16.00;67.30;;;;;;5173428;27;19977;-65
2022/10/19 05:53:16;;;;;;;;;;;16.00;67.30;;;;;;5174387;27;19919;-67
2022/10/19 05:55:42;;;;;;;;;;;16.00;67.30;;;;;;5156481;27;19941;-66
2022/10/19 05:58:08;;;;;;;;;;;16.00;67.20;;;;;;5156075;27;19922;-65
2022/10/19 06:00:36;;;;;;;;;;;15.90;67.20;;;;;;5174794;27;19918;-65
2022/10/19 06:03:02;;;;;;;;;;;15.70;67.10;;;;;;5156265;27;20047;-65
2022/10/19 06:05:27;;;;;;;;;;;15.90;67.20;;;;;;5156356;27;20389;-65
2022/10/19 06:07:53;;;;;;;;;;;15.90;67.20;;;;;;5174735;27;19945;-66
2022/10/19 06:10:20;;;;;;;;;;;15.90;67.30;;;;;;5156071;27;20293;-65
2022/10/19 06:12:45;;;;;;;;;;;15.90;67.20;;;;;;5174580;27;20014;-65
2022/10/19 06:15:11;;;;;;;;;;;15.90;67.30;;;;;;5156181;27;20399;-65
2022/10/19 06:17:36;;;;;;;;;;;15.90;67.30;;;;;;5174453;27;20374;-65
2022/10/19 06:20:02;;;;;;;;;;;15.90;67.20;;;;;;5156191;27;19942;-66
2022/10/19 06:22:28;;;;;;;;;;;15.90;67.20;;;;;;5174620;27;19927;-65
2022/10/19 06:24:54;;;;;;;;;;;15.90;67.20;;;;;;5155987;27;20376;-65
2022/10/19 06:27:20;;;;;;;;;;;15.90;67.20;;;;;;5155900;27;20385;-65
2022/10/19 06:29:45;;;;;;;;;;;15.90;67.10;;;;;;5155815;27;19965;-65
2022/10/19 06:32:11;;;;;;;;;;;15.90;67.10;;;;;;5174374;27;19972;-65
2022/10/19 06:34:36;;;;;;;;;;;15.90;67.10;;;;;;5176557;27;19962;-66
2022/10/19 06:37:02;;;;;;;;;;;15.80;67.00;;;;;;5159724;27;19918;-65
2022/10/19 06:39:27;;;;;;;;;;;15.90;67.10;;;;;;5159913;27;19922;-65
2022/10/19 06:41:53;;;;;;;;;;;15.90;67.10;;;;;;5178262;27;19925;-67
2022/10/19 06:44:18;;;;;;;;;;;15.90;67.10;;;;;;5159595;27;19926;-65
2022/10/19 06:46:44;;;;;;;;;;;15.90;67.10;;;;;;5178133;27;19919;-65
2022/10/19 06:49:11;;;;;;;;;;;15.90;67.10;;;;;;5159091;27;19922;-65
2022/10/19 06:51:36;;;;;;;;;;;15.80;67.00;;;;;;5159390;27;20050;-65
2022/10/19 06:54:02;;;;;;;;;;;15.80;67.00;;;;;;5159493;27;20013;-65
2022/10/19 06:56:27;;;;;;;;;;;15.80;67.70;;;;;;5178142;27;20365;-66
2022/10/19 06:58:53;;;;;;;;;;;15.80;67.00;;;;;;5159070;27;20002;-65
2022/10/19 07:01:19;;;;;;;;;;;15.80;67.00;;;;;;5177941;27;19926;-65
2022/10/19 07:03:45;;;;;;;;;;;15.80;66.90;;;;;;5177754;27;20374;-66
2022/10/19 07:06:11;;;;;;;;;;;15.80;66.90;;;;;;5159037;27;20366;-65
2022/10/19 07:08:38;;;;;;;;;;;15.80;66.90;;;;;;5158973;27;20006;-64
2022/10/19 07:11:05;;;;;;;;;;;15.80;66.90;;;;;;5158967;27;19998;-66
2022/10/19 07:13:30;;;;;;;;;;;15.80;66.90;;;;;;5177528;27;19925;-64
2022/10/19 07:15:57;;;;;;;;;;;15.80;66.90;;;;;;5158929;27;19919;-65
2022/10/19 07:18:23;;;;;;;;;;;15.80;66.90;;;;;;5159107;27;19969;-65
2022/10/19 07:20:56;;;;;;;;;;;15.80;66.90;;;;;;5158696;27;20338;-65
2022/10/19 07:23:22;;;;;;;;;;;15.80;66.80;;;;;;5159061;27;19918;-65
2022/10/19 07:25:47;;;;;;;;;;;15.80;66.90;;;;;;5177323;27;19929;-66
2022/10/19 07:28:13;;;;;;;;;;;15.80;66.90;;;;;;5158805;27;19977;-65
2022/10/19 07:30:39;;;;;;;;;;;15.80;66.90;;;;;;5158585;27;20374;-65
2022/10/19 07:33:05;;;;;;;;;;;15.80;66.80;;;;;;5158601;27;19919;-65
2022/10/19 07:35:31;;;;;;;;;;;15.80;67.60;;;;;;5177450;27;19923;-65
2022/10/19 07:37:56;;;;;;;;;;;15.70;66.80;;;;;;5158580;27;19919;-65
2022/10/19 07:40:22;;;;;;;;;;;15.80;66.90;;;;;;5158416;27;19926;-65
2022/10/19 07:42:47;;;;;;;;;;;15.80;66.80;;;;;;5158448;27;19923;-66
2022/10/19 07:45:13;;;;;;;;;;;15.80;66.80;;;;;;5158465;27;19918;-65
2022/10/19 07:47:38;;;;;;;;;;;15.80;66.90;;;;;;5154558;27;20298;-65
2022/10/19 07:50:04;;;;;;;;;;;15.80;66.80;;;;;;5154704;27;19919;-65
2022/10/19 07:52:29;;;;;;;;;;;15.80;66.80;;;;;;5156169;27;19919;-65
2022/10/19 07:54:55;;;;;;;;;;;15.70;67.00;;;;;;5154935;27;20366;-65
2022/10/19 07:57:21;;;;;;;;;;;15.80;66.80;;;;;;5154677;27;20014;-67
2022/10/19 07:59:47;;;;;;;;;;;15.80;66.80;;;;;;5153804;27;19919;-65
2022/10/19 08:02:15;;;;;;;;;;;15.80;66.80;;;;;;5155838;27;19971;-66
2022/10/19 08:04:41;;;;;;;;;;;15.80;66.70;;;;;;5155803;27;19919;-67
2022/10/19 08:07:07;;;;;;;;;;;15.80;66.70;;;;;;5154611;27;19949;-65
2022/10/19 08:09:32;;;;;;;;;;;15.70;66.70;;;;;;5154477;27;19919;-67
2022/10/19 08:11:58;;;;;;;;;;;15.70;66.70;;;;;;5154350;27;19931;-67
2022/10/19 08:14:23;;;;;;;;;;;15.70;66.70;;;;;;5155867;27;19919;-65
2022/10/19 08:16:50;;;;;;;;;;;15.80;66.70;;;;;;5155544;27;20542;-66
2022/10/19 08:19:15;;;;;;;;;;;15.80;66.70;;;;;;5154239;27;19919;-65
2022/10/19 08:21:42;;;;;;;;;;;15.80;66.70;;;;;;5155729;27;19919;-65
2022/10/19 08:24:09;;;;;;;;;;;15.80;66.70;;;;;;5154099;27;20393;-65
2022/10/19 08:26:37;;;;;;;;;;;15.80;66.60;;;;;;5155512;27;19923;-65
2022/10/19 08:29:04;;;;;;;;;;;15.80;66.70;;;;;;5155301;27;20123;-65
2022/10/19 08:31:30;;;;;;;;;;;15.80;66.60;;;;;;5155350;27;19919;-65
2022/10/19 08:33:56;;;;;;;;;;;15.80;66.70;;;;;;5154258;27;20387;-66
2022/10/19 08:36:21;;;;;;;;;;;15.80;66.70;;;;;;5154170;27;20013;-65
2022/10/19 08:38:47;;;;;;;;;;;15.80;66.80;;;;;;5153940;27;20438;-66
2022/10/19 08:41:33;;;;;;;;;;;15.80;66.70;;;;;;5154973;27;19926;-65
2022/10/19 08:44:06;;;;;;;;;;;15.70;66.50;;;;;;5153868;27;19919;-65
2022/10/19 08:49:19;;;;;;;;;;;15.70;66.50;;;;;;5123054;27;19939;-67
2022/10/19 08:51:47;;;;;;;;;;;15.70;66.40;;;;;;5122317;28;19920;-65
2022/10/19 08:54:15;;;;;;;;;;;15.70;66.40;;;;;;5088308;28;19926;-65
2022/10/19 08:56:48;;;;;;;;;;;15.70;66.40;;;;;;5122903;28;19977;-65
2022/10/19 08:59:20;;;;;;;;;;;15.70;66.50;;;;;;5088418;28;19928;-65
2022/10/19 09:01:54;;;;;;;;;;;15.80;66.40;;;;;;5088434;28;19920;-66
2022/10/19 09:04:23;;;;;;;;;;;15.70;66.40;;;;;;5088706;28;19920;-65
2022/10/19 09:06:55;;;;;;;;;;;15.70;66.30;;;;;;5088262;28;20147;-65
2022/10/19 09:09:22;;;;;;;;;;;15.70;66.30;;;;;;5122285;28;19927;-65
2022/10/19 09:11:49;;;;;;;;;;;15.70;66.20;;;;;;5088438;28;19970;-65
2022/10/19 09:14:19;;;;;;;;;;;15.70;66.20;;;;;;5122170;28;20434;-67
2022/10/19 09:16:45;;;;;;;;;;;15.80;66.20;;;;;;5089396;28;19960;-65
2022/10/19 09:19:14;;;;;;;;;;;15.80;66.20;;;;;;5122066;28;19924;-65
2022/10/19 09:21:43;;;;;;;;;;;15.80;66.10;;;;;;5122199;28;19921;-65
2022/10/19 09:24:15;;;;;;;;;;;15.80;66.10;;;;;;5087826;28;19970;-65
2022/10/19 09:26:48;;;;;;;;;;;15.80;66.10;;;;;;5087946;28;20383;-65
2022/10/19 09:29:20;;;;;;;;;;;15.80;66.00;;;;;;5088024;28;19931;-66
2022/10/19 09:31:46;;;;;;;;;;;15.80;65.90;;;;;;5122284;28;19920;-67
2022/10/19 09:34:18;;;;;;;;;;;15.80;65.90;;;;;;5089347;28;19990;-65
2022/10/19 09:36:45;;;;;;;;;;;15.70;65.80;;;;;;5089007;28;19921;-65
2022/10/19 09:39:12;;;;;;;;;;;15.80;65.90;;;;;;5121947;28;19931;-65
2022/10/19 09:41:44;;;;;;;;;;;15.80;65.80;;;;;;5089127;28;19920;-65
2022/10/19 09:44:09;;;;;;;;;;;15.80;65.70;;;;;;5087552;28;19920;-65
2022/10/19 09:49:14;;;;;;;;;;;15.80;65.70;;;;;;5122473;27;19912;-66
2022/10/19 09:51:44;;;;;;;;;;;15.80;65.80;;;;;;5088547;28;19921;-65
2022/10/19 09:54:22;;;;;;;;;;;15.80;65.70;;;;;;5088783;28;19924;-65
2022/10/19 09:56:51;;;;;;;;;;;15.80;65.60;;;;;;5088566;28;20018;-65
2022/10/19 09:59:20;;;;;;;;;;;15.80;65.60;;;;;;5088031;28;19930;-65
2022/10/19 10:01:57;;;;;;;;;;;15.70;65.50;;;;;;5088237;28;19926;-65
2022/10/19 10:04:22;;;;;;;;;;;15.80;65.60;;;;;;5088250;28;19921;-64
2022/10/19 10:06:48;;;;;;;;;;;15.80;65.50;;;;;;5088231;28;19927;-66
2022/10/19 10:09:15;;;;;;;;;;;15.80;65.50;;;;;;5088579;28;19927;-67
2022/10/19 10:11:42;;;;;;;;;;;15.80;65.40;;;;;;5089607;28;19933;-67
2022/10/19 10:14:27;;;;;;;;;;;15.80;65.40;;;;;;5088523;28;19928;-64
2022/10/19 10:16:54;;;;;;;;;;;15.80;65.40;;;;;;5089309;28;19928;-65
2022/10/19 10:19:20;;;;;;;;;;;15.70;65.30;;;;;;5089631;28;19983;-67
2022/10/19 10:21:47;;;;;;;;;;;15.80;65.40;;;;;;5089279;28;20294;-65
2022/10/19 10:26:55;;;;;;;;;;;15.80;65.30;;;;;;5122800;27;19912;-64
2022/10/19 10:29:22;;;;;;;;;;;15.80;65.30;;;;;;5088665;28;19963;-65
2022/10/19 10:31:49;;;;;;;;;;;15.80;65.30;;;;;;5088782;28;19920;-67
2022/10/19 10:34:18;;;;;;;;;;;15.80;65.30;;;;;;5089875;28;20311;-65
2022/10/19 10:36:47;;;;;;;;;;;15.80;65.20;;;;;;5088747;28;19921;-65
2022/10/19 10:39:14;;;;;;;;;;;15.80;65.20;;;;;;5088387;28;19940;-66
2022/10/19 10:41:42;;;;;;;;;;;15.80;65.10;;;;;;5088813;28;19927;-65
2022/10/19 10:44:15;;;;;;;;;;;15.80;65.00;;;;;;5122687;28;19969;-65
2022/10/19 10:46:49;;;;;;;;;;;15.80;65.00;;;;;;5089718;28;20173;-65
2022/10/19 10:49:20;;;;;;;;;;;15.80;65.00;;;;;;5088074;28;19931;-65
2022/10/19 10:51:49;;;;;;;;;;;15.80;64.80;;;;;;5088143;28;19927;-65
2022/10/19 10:54:24;;;;;;;;;;;15.70;64.80;;;;;;5089364;28;20384;-65
2022/10/19 10:57:11;;;;;;;;;;;15.90;64.90;;;;;;5122040;28;20015;-65
2022/10/19 10:59:57;;;;;;;;;;;15.80;64.80;;;;;;5087989;28;19924;-65
2022/10/19 11:02:25;;;;;;;;;;;15.80;64.80;;;;;;5087831;28;20436;-65
2022/10/19 11:04:55;;;;;;;;;;;15.80;64.70;;;;;;5089227;28;20055;-67
2022/10/19 11:07:23;;;;;;;;;;;15.80;64.70;;;;;;5089092;28;19943;-65
2022/10/19 11:09:53;;;;;;;;;;;15.80;64.80;;;;;;5088193;28;20034;-65
2022/10/19 11:12:22;;;;;;;;;;;15.80;64.80;;;;;;5121114;28;19920;-65
2022/10/19 11:14:49;;;;;;;;;;;15.80;64.80;;;;;;5088998;28;19921;-65
2022/10/19 11:17:19;;;;;;;;;;;15.90;64.90;;;;;;5088280;28;20083;-67
2022/10/19 11:19:45;;;;;;;;;;;15.80;64.80;;;;;;5087810;28;19925;-65
2022/10/19 11:22:30;;;;;;;;;;;15.80;64.80;;;;;;5087802;28;20257;-65
2022/10/19 11:25:16;;;;;;;;;;;15.80;64.80;;;;;;5088322;28;20387;-67
2022/10/19 11:30:22;;;;;;;;;;;15.80;64.80;;;;;;5122503;27;19912;-65
2022/10/19 11:35:31;;;;;;;;;;;15.90;64.80;;;;;;5122613;27;19919;-65
2022/10/19 11:40:41;;;;;;;;;;;15.90;64.80;;;;;;5122916;27;19912;-66
2022/10/19 11:43:27;;;;;;;;;;;15.90;64.70;;;;;;5088432;28;19920;-65
2022/10/19 11:45:58;;;;;;;;;;;15.80;64.60;;;;;;5089714;28;20285;-67
2022/10/19 11:48:32;;;;;;;;;;;15.90;64.60;;;;;;5088488;28;20402;-67
2022/10/19 11:51:02;;;;;;;;;;;15.80;64.50;;;;;;5088529;28;19920;-65
2022/10/19 11:56:11;;;;;;;;;;;15.90;64.60;;;;;;5122901;27;19919;-67
2022/10/19 12:04:21;;;;;;;;;;;15.90;64.50;;;;;;5082279;28;19913;-65
2022/10/19 12:12:26;;;;;;;;;;;15.80;64.40;;;;;;5122559;27;19913;-65
2022/10/19 12:14:55;;;;;;;;;;;15.90;64.50;;;;;;5088519;28;20016;-67
2022/10/19 12:17:24;;;;;;;;;;;15.90;64.50;;;;;;5088515;28;19924;-65
2022/10/19 12:19:52;;;;;;;;;;;15.80;64.40;;;;;;5088480;28;20387;-64
2022/10/19 12:22:21;;;;;;;;;;;15.90;64.50;;;;;;5088793;28;20368;-67
2022/10/19 12:24:47;;;;;;;;;;;15.90;64.50;;;;;;5089660;28;19967;-67
2022/10/19 12:27:14;;;;;;;;;;;15.90;64.50;;;;;;5088324;28;19920;-67
2022/10/19 12:29:42;;;;;;;;;;;15.90;64.50;;;;;;5088479;28;20330;-65
2022/10/19 12:32:10;;;;;;;;;;;15.90;64.50;;;;;;5088561;28;19966;-65
2022/10/19 12:34:44;;;;;;;;;;;15.90;64.50;;;;;;5089677;28;19947;-66
2022/10/19 12:37:12;;;;;;;;;;;15.90;64.50;;;;;;5088698;28;20313;-65
2022/10/19 12:42:40;;;;;;;;;;;15.90;64.50;;;;;;5166524;27;791811;-65
2022/10/19 12:48:05;;;;;;;;;;;15.90;64.40;;;;;;5122912;27;19912;-64
2022/10/19 12:50:52;;;;;;;;;;;15.90;64.40;;;;;;5089698;28;19921;-65
2022/10/19 12:53:27;;;;;;;;;;;15.90;64.50;;;;;;5088925;28;19924;-65
2022/10/19 12:56:12;;;;;;;;;;;15.90;64.50;;;;;;5088483;28;20128;-65
2022/10/19 13:01:20;;;;;;;;;;;15.90;64.30;;;;;;5122772;27;19912;-65
2022/10/19 13:03:47;;;;;;;;;;;15.90;64.30;;;;;;5088617;28;19927;-64
2022/10/19 13:06:32;;;;;;;;;;;15.90;64.30;;;;;;5089822;28;19946;-65
2022/10/19 13:09:01;;;;;;;;;;;15.90;64.30;;;;;;5088313;28;19951;-65
2022/10/19 13:11:26;;;;;;;;;;;15.90;64.30;;;;;;5089698;28;20033;-65
2022/10/19 13:14:01;;;;;;;;;;;15.90;64.30;;;;;;5088705;28;20377;-65
2022/10/19 13:24:33;;;;;;;;;;;15.90;64.30;;;;;;5122392;27;20287;-65
2022/10/19 13:29:43;;;;;;;;;;;15.90;64.40;;;;;;5164333;27;19912;-67
2022/10/19 13:32:28;;;;;;;;;;;15.90;64.50;;;;;;5129383;28;19930;-65
2022/10/19 13:34:54;;;;;;;;;;;15.90;64.30;;;;;;5129675;28;20075;-65
2022/10/19 13:37:20;;;;;;;;;;;15.90;64.20;;;;;;5129288;28;20010;-65
2022/10/19 13:39:46;;;;;;;;;;;15.90;64.30;;;;;;5129712;28;19920;-65
2022/10/19 13:42:27;;;;;;;;;;;15.90;64.40;;;;;;5129503;28;20367;-65
2022/10/19 13:44:52;;;;;;;;;;;15.90;64.30;;;;;;5129319;28;20008;-65
2022/10/19 13:47:24;;;;;;;;;;;15.90;64.30;;;;;;5129322;28;19973;-65
2022/10/19 14:01:12;;;;;;;;;;;15.90;64.30;;;;;;5122676;27;19912;-65
2022/10/19 14:03:58;;;;;;;;;;;15.90;64.50;;;;;;5088612;28;19921;-66
2022/10/19 14:11:43;;;;;;;;;;;15.90;64.40;;;;;;5122556;27;20372;-68
2022/10/19 14:16:50;;;;;;;;;;;16.00;64.30;;;;;;5122934;27;19912;-65
2022/10/19 14:19:25;;;;;;;;;;;15.80;64.20;;;;;;5088576;28;19920;-65
2022/10/19 14:21:51;;;;;;;;;;;15.90;64.30;;;;;;5088808;28;20460;-65
2022/10/19 14:24:19;;;;;;;;;;;16.00;64.30;;;;;;5088496;28;19920;-65
2022/10/19 14:26:45;;;;;;;;;;;16.00;64.20;;;;;;5088495;28;20577;-65
2022/10/19 14:29:11;;;;;;;;;;;15.90;64.20;;;;;;5088641;28;20527;-67
2022/10/19 14:31:37;;;;;;;;;;;16.00;64.30;;;;;;5122901;28;20311;-67
2022/10/19 14:34:03;;;;;;;;;;;15.90;64.10;;;;;;5088295;28;20262;-65
2022/10/19 14:36:32;;;;;;;;;;;15.90;64.10;;;;;;5089466;28;19931;-65
2022/10/19 14:38:57;;;;;;;;;;;15.90;64.20;;;;;;5088227;28;19928;-67
2022/10/19 14:44:25;;;;;;;;;;;16.00;64.10;;;;;;5122839;27;19912;-65
2022/10/19 14:46:50;;;;;;;;;;;15.90;64.20;;;;;;5088846;28;19927;-65
2022/10/19 14:49:16;;;;;;;;;;;16.00;64.30;;;;;;5088805;28;20287;-65
2022/10/19 14:51:45;;;;;;;;;;;16.00;64.30;;;;;;5088553;28;20393;-67
2022/10/19 14:54:16;;;;;;;;;;;15.90;64.20;;;;;;5088631;28;19944;-67
2022/10/19 14:56:46;;;;;;;;;;;15.90;64.30;;;;;;5089896;28;20355;-66
2022/10/19 14:59:19;;;;;;;;;;;16.00;64.20;;;;;;5088267;28;20368;-65
2022/10/19 15:01:47;;;;;;;;;;;16.00;64.30;;;;;;5089652;28;20358;-65
2022/10/19 15:04:17;;;;;;;;;;;15.90;64.20;;;;;;5088167;28;19940;-67
2022/10/19 15:06:42;;;;;;;;;;;15.90;64.30;;;;;;5089566;28;19920;-65
2022/10/19 15:09:17;;;;;;;;;;;16.00;64.20;;;;;;5071247;28;19946;-67
2022/10/19 15:11:45;;;;;;;;;;;15.90;64.10;;;;;;5088138;28;20386;-66
2022/10/19 15:14:13;;;;;;;;;;;15.90;64.20;;;;;;5089356;28;19920;-67
2022/10/19 15:22:05;;;;;;;;;;;15.90;64.20;;;;;;5166079;27;793755;-67
2022/10/19 15:24:30;;;;;;;;;;;15.90;64.20;;;;;;5195768;27;19925;-65
2022/10/19 15:26:56;;;;;;;;;;;16.00;64.30;;;;;;5195845;27;20377;-65
2022/10/19 15:29:26;;;;;;;;;;;15.90;64.20;;;;;;5214270;27;19919;-65
2022/10/19 15:31:55;;;;;;;;;;;15.90;64.30;;;;;;5188403;27;19926;-66
2022/10/19 15:34:22;;;;;;;;;;;15.90;64.20;;;;;;5174252;27;19975;-65
2022/10/19 15:37:03;;;;;;;;;;;15.90;64.30;;;;;;5174185;27;19932;-65
2022/10/19 15:39:31;;;;;;;;;;;15.90;64.20;;;;;;5174190;27;19926;-65
2022/10/19 15:42:16;;;;;;;;;;;15.90;64.20;;;;;;5192763;27;20289;-65
2022/10/19 15:44:42;;;;;;;;;;;15.90;64.20;;;;;;5174123;27;20013;-65
2022/10/19 15:50:10;;;;;;;;;;;15.90;64.30;;;;;;5122914;27;19912;-67